Main page
METAR-TAF:

METAR-TAF

Airports :

Chièvres Air Base

Chièvres, Belgium

latitude: 50-34N, longitude: 003-50E, elevation: 60 m

Current weather observation

The report was made 26 minutes ago, at 20:55 UTC
Wind 7 kt from the South
Temperature 7°C
Humidity 93%
Pressure 1029 hPa
Visibility 10 km or more

METAR: EBCV 132055Z AUTO 18007KT 9999 NCD 07/06 Q1029 BLU

Time: 22:21 (21:21 UTC)

Forecast

The report was made 5 hours and 40 minutes ago, at 15:41 UTC
Forecast valid from 13 at 19 UTC to 14 at 07 UTC
Wind 10 kt from the South/Southwest
Visibility 10 km or more
Few clouds at a height of 2000 ft
Scattered clouds at a height of 25000 ft

TAF: EBCV 131541Z 1319/1407 21010KT 9999 FEW020 SCT250 BY EBWM

Weather observations and forecasts of more than 4000 airports (METAR and TAF reports).

The available stations are represented by yellow and red dots on the map.

Hover mouse over dot to see the name of the station.

Then click to see weather observations and forecasts.

To change the map : click on the green buttons with a black cross to zoom in, on the green button with a dash to zoom out, or on the green arrows for adjacent maps.


METAR-TAF: